Time;durP1;ratioP1;P1;durP2;ratioP2;P2;SDS_P1;SDS_P2;PMS_P1;PMS_P2;Temp;Humidity;BMP_temperature;BMP_pressure;BME280_temperature;BME280_humidity;BME280_pressure;Samples;Min_cycle;Max_cycle;Signal;HPM_P1;HPM_P2
2023/08/09 00:02:01;;;;;;;;;;;13.20;99.90;;;;;;5032599;28;20021;-88
2023/08/09 00:04:27;;;;;;;3.58;0.93;;;13.10;99.90;;;;;;5031917;28;20314;-90
2023/08/09 00:06:53;;;;;;;;;;;13.20;99.90;;;;;;5033300;28;20025;-88
2023/08/09 00:09:20;;;;;;;2.67;0.80;;;13.10;99.90;;;;;;5031690;28;19905;-89
2023/08/09 00:11:45;;;;;;;6.43;1.05;;;13.10;99.90;;;;;;5032695;28;20030;-90
2023/08/09 00:14:11;;;;;;;;;;;13.10;99.90;;;;;;5033202;28;20037;-89
2023/08/09 00:16:37;;;;;;;2.90;1.15;;;13.10;99.90;;;;;;5031838;28;20003;-91
2023/08/09 00:19:03;;;;;;;;;;;13.10;99.90;;;;;;5031976;28;20026;-89
2023/08/09 00:21:29;;;;;;;3.00;0.77;;;13.10;99.90;;;;;;5032674;28;19905;-89
2023/08/09 00:23:54;;;;;;;;;;;13.00;99.90;;;;;;5032980;28;20083;-88
2023/08/09 00:26:20;;;;;;;5.10;1.08;;;13.00;99.90;;;;;;5031423;28;19909;-88
2023/08/09 00:28:46;;;;;;;;;;;13.00;99.90;;;;;;5032091;28;20116;-89
2023/08/09 00:31:12;;;;;;;3.05;0.80;;;12.90;99.90;;;;;;5033015;28;19911;-91
2023/08/09 00:33:37;;;;;;;;;;;12.90;99.90;;;;;;5033184;28;20093;-90
2023/08/09 00:36:03;;;;;;;2.25;0.70;;;12.90;99.90;;;;;;5037802;28;19913;-91
2023/08/09 00:38:29;;;;;;;3.58;0.70;;;12.80;99.90;;;;;;5032813;28;20037;-92
2023/08/09 00:40:55;;;;;;;;;;;12.80;99.90;;;;;;5031987;28;20025;-87
2023/08/09 00:43:20;;;;;;;5.05;0.90;;;12.80;99.90;;;;;;5031284;28;19909;-91
2023/08/09 00:45:46;;;;;;;;;;;12.80;99.90;;;;;;5032014;28;20029;-91
2023/08/09 00:48:13;;;;;;;3.67;1.02;;;12.80;99.90;;;;;;5032621;28;20324;-90
2023/08/09 00:50:42;;;;;;;3.40;1.05;;;12.70;99.90;;;;;;5032858;28;20036;-93
2023/08/09 00:53:08;;;;;;;2.85;0.88;;;12.70;99.90;;;;;;5032323;28;20033;-91
2023/08/09 00:55:34;;;;;;;4.00;0.88;;;12.70;99.90;;;;;;5032702;28;20028;-90
2023/08/09 00:57:59;;;;;;;;;;;12.80;99.90;;;;;;5033648;28;20084;-92
2023/08/09 01:00:25;;;;;;;5.55;1.02;;;12.80;99.90;;;;;;5035410;28;19931;-92
2023/08/09 01:02:51;;;;;;;;;;;12.70;99.90;;;;;;5035194;28;20033;-91
2023/08/09 01:05:16;;;;;;;4.78;1.00;;;12.70;99.90;;;;;;5035312;28;19940;-91
2023/08/09 01:07:55;;;;;;;;;;;12.70;99.90;;;;;;5036551;28;20025;-91
2023/08/09 01:10:41;;;;;;;4.38;1.05;;;12.60;99.90;;;;;;5035726;28;19928;-90
2023/08/09 01:13:07;;;;;;;2.23;1.20;;;12.70;99.90;;;;;;5035500;28;20128;-90
2023/08/09 01:15:33;;;;;;;2.95;1.23;;;12.70;99.90;;;;;;5034544;28;20104;-89
2023/08/09 01:18:00;;;;;;;5.25;0.80;;;12.60;99.90;;;;;;5035907;28;20104;-92
2023/08/09 01:20:26;;;;;;;8.40;1.05;;;12.60;99.90;;;;;;5034751;28;20033;-94
2023/08/09 01:22:58;;;;;;;4.65;0.80;;;12.60;99.90;;;;;;5034738;28;20068;-90
2023/08/09 01:25:24;;;;;;;2.58;1.10;;;12.60;99.90;;;;;;5035725;28;20033;-91
2023/08/09 01:27:50;;;;;;;;;;;12.60;99.90;;;;;;5036042;28;20029;-91
2023/08/09 01:30:16;;;;;;;2.88;1.10;;;12.50;99.90;;;;;;5035744;28;19923;-91
2023/08/09 01:32:42;;;;;;;;;;;12.50;99.90;;;;;;5034187;28;20017;-90
2023/08/09 01:35:08;;;;;;;5.28;0.90;;;12.50;99.90;;;;;;5035825;28;20267;-91
2023/08/09 01:37:55;;;;;;;2.10;0.98;;;12.50;99.90;;;;;;5035211;28;20029;-89
2023/08/09 01:40:22;;;;;;;4.75;0.90;;;12.50;99.90;;;;;;5033546;28;20014;-91
2023/08/09 01:42:51;;;;;;;2.33;0.85;;;12.40;99.90;;;;;;5034782;28;20116;-91
2023/08/09 01:45:19;;;;;;;3.20;1.10;;;12.40;99.90;;;;;;5035395;28;20083;-90
2023/08/09 01:47:45;;;;;;;9.25;1.08;;;12.40;99.90;;;;;;5034009;28;20092;-91
2023/08/09 01:50:23;;;;;;;5.47;1.08;;;12.40;99.90;;;;;;5034092;28;20040;-90
2023/08/09 01:52:49;;;;;;;4.10;1.02;;;12.40;99.90;;;;;;5035057;28;20025;-91
2023/08/09 01:55:17;;;;;;;;;;;12.40;99.90;;;;;;5035684;28;20025;-91
2023/08/09 01:57:47;;;;;;;5.65;0.90;;;12.40;99.90;;;;;;5035119;28;19940;-90
2023/08/09 02:00:19;;;;;;;5.68;1.30;;;12.40;99.90;;;;;;5034993;28;20018;-92
2023/08/09 02:02:48;;;;;;;5.45;1.23;;;12.40;99.90;;;;;;5033935;28;20037;-91
2023/08/09 02:05:15;;;;;;;3.45;1.25;;;12.40;99.90;;;;;;5034911;28;20040;-90
2023/08/09 02:07:40;;;;;;;2.50;1.10;;;12.40;99.90;;;;;;5037640;28;20029;-91
2023/08/09 02:10:10;;;;;;;;;;;12.30;99.90;;;;;;5037666;28;20074;-91
2023/08/09 02:12:37;;;;;;;3.75;1.35;;;12.30;99.90;;;;;;5033816;28;20397;-91
2023/08/09 02:15:03;;;;;;;2.00;1.00;;;12.30;99.90;;;;;;5034169;28;20112;-90
2023/08/09 02:17:29;;;;;;;;;;;12.30;99.90;;;;;;5034315;28;20025;-91
2023/08/09 02:19:54;;;;;;;4.63;1.40;;;12.30;99.90;;;;;;5034815;28;19927;-91
2023/08/09 02:22:20;;;;;;;;;;;12.20;99.90;;;;;;5034036;28;20041;-90
2023/08/09 02:24:46;;;;;;;5.00;1.42;;;12.20;99.90;;;;;;5034428;28;20293;-90
2023/08/09 02:27:12;;;;;;;5.95;1.35;;;12.20;99.90;;;;;;5033904;28;20021;-91
2023/08/09 02:29:38;;;;;;;5.40;0.98;;;12.20;99.90;;;;;;5033495;28;20125;-92
2023/08/09 02:32:05;;;;;;;3.95;1.25;;;12.30;99.90;;;;;;5034742;28;20029;-91
2023/08/09 02:34:30;;;;;;;3.58;1.00;;;12.20;99.90;;;;;;5034560;28;20047;-92
2023/08/09 02:36:56;;;;;;;;;;;12.30;99.90;;;;;;5033790;28;20445;-90
2023/08/09 02:39:22;;;;;;;4.65;1.50;;;12.20;99.90;;;;;;5033146;28;19928;-92
2023/08/09 02:41:48;;;;;;;2.33;0.80;;;12.20;99.90;;;;;;5033398;28;20025;-91
2023/08/09 02:44:14;;;;;;;2.33;1.02;;;12.10;99.90;;;;;;5034146;28;20064;-90
2023/08/09 02:46:40;;;;;;;;;;;12.10;99.90;;;;;;5033238;28;20053;-90
2023/08/09 02:49:05;;;;;;;3.50;1.15;;;12.10;99.90;;;;;;5033077;28;19943;-91
2023/08/09 02:51:32;;;;;;;;;;;12.10;99.90;;;;;;5034693;28;20036;-91
2023/08/09 02:54:06;;;;;;;2.57;1.00;;;12.10;99.90;;;;;;5033252;28;19944;-90
2023/08/09 02:56:32;;;;;;;2.97;1.40;;;12.10;99.90;;;;;;5034327;28;20034;-91
2023/08/09 02:58:59;;;;;;;2.67;1.17;;;12.10;99.90;;;;;;5033812;28;20121;-92
2023/08/09 03:01:25;;;;;;;6.13;1.48;;;12.10;99.90;;;;;;5032968;28;20032;-92
2023/08/09 03:03:52;;;;;;;2.70;1.25;;;12.10;99.90;;;;;;5034104;28;20063;-91
2023/08/09 03:06:20;;;;;;;2.58;1.25;;;12.10;99.90;;;;;;5034510;28;20022;-90
2023/08/09 03:08:46;;;;;;;2.80;1.20;;;12.10;99.90;;;;;;5034002;28;20501;-91
2023/08/09 03:11:13;;;;;;;;;;;12.10;99.90;;;;;;5033192;28;20027;-92
2023/08/09 03:13:38;;;;;;;2.97;1.40;;;12.10;99.90;;;;;;5032765;28;20006;-90
2023/08/09 03:16:04;;;;;;;;;;;12.00;99.90;;;;;;5033337;28;20065;-91
2023/08/09 03:18:30;;;;;;;4.57;1.73;;;12.00;99.90;;;;;;5032796;28;19959;-93
2023/08/09 03:20:55;;;;;;;;;;;12.00;99.90;;;;;;5033315;28;20044;-90
2023/08/09 03:23:21;;;;;;;4.45;1.02;;;12.00;99.90;;;;;;5032494;28;20499;-91
2023/08/09 03:25:46;;;;;;;;;;;12.10;99.90;;;;;;5032989;28;20033;-92
2023/08/09 03:28:12;;;;;;;2.85;0.95;;;12.10;99.90;;;;;;5032249;28;20628;-91
2023/08/09 03:30:38;;;;;;;;;;;12.20;99.90;;;;;;5032706;28;20021;-90
2023/08/09 03:33:04;;;;;;;3.13;1.10;;;12.10;99.90;;;;;;5032282;28;19951;-90
2023/08/09 03:35:30;;;;;;;4.88;1.17;;;12.10;99.90;;;;;;5031790;28;20021;-92
2023/08/09 03:37:55;;;;;;;;;;;12.10;99.90;;;;;;5032565;28;20136;-91
2023/08/09 03:40:21;;;;;;;1.92;0.85;;;12.10;99.90;;;;;;5035181;28;19908;-90
2023/08/09 03:42:47;;;;;;;;;;;12.00;99.90;;;;;;5037978;28;20478;-91
2023/08/09 03:45:12;;;;;;;4.93;1.30;;;12.00;99.90;;;;;;5033385;28;19913;-91
2023/08/09 03:47:38;;;;;;;;;;;12.00;99.90;;;;;;5032463;28;20029;-91
2023/08/09 03:50:06;;;;;;;2.35;1.08;;;12.00;99.90;;;;;;5032300;28;19955;-90
2023/08/09 03:52:32;;;;;;;4.55;1.38;;;12.10;99.90;;;;;;5033284;28;20017;-91
2023/08/09 03:54:58;;;;;;;6.00;1.38;;;12.10;99.90;;;;;;5033160;28;20009;-90
2023/08/09 03:57:23;;;;;;;;;;;12.10;99.90;;;;;;5033346;28;20052;-91
2023/08/09 03:59:49;;;;;;;5.00;1.08;;;12.20;99.90;;;;;;5031981;28;19963;-91
2023/08/09 04:02:16;;;;;;;4.28;0.90;;;12.20;99.90;;;;;;5031965;28;20021;-91
2023/08/09 04:04:41;;;;;;;10.85;1.73;;;12.30;99.90;;;;;;5032405;28;20144;-91
2023/08/09 04:07:07;;;;;;;;;;;12.30;99.90;;;;;;5031642;28;20033;-90
2023/08/09 04:09:33;;;;;;;4.20;0.82;;;12.30;99.90;;;;;;5032289;28;19959;-90
2023/08/09 04:11:59;;;;;;;;;;;12.30;99.90;;;;;;5033015;28;20107;-89
2023/08/09 04:14:25;;;;;;;3.53;1.77;;;12.40;99.90;;;;;;5031919;28;19913;-89
2023/08/09 04:16:51;;;;;;;5.03;1.63;;;12.50;99.90;;;;;;5032883;28;20017;-91
2023/08/09 04:19:17;;;;;;;;;;;12.50;99.90;;;;;;5033135;28;20033;-88
2023/08/09 04:21:42;;;;;;;5.35;1.77;;;12.60;99.90;;;;;;5031622;28;19905;-90
2023/08/09 04:24:10;;;;;;;2.67;1.00;;;12.60;99.90;;;;;;5032013;28;20076;-91
2023/08/09 04:26:35;;;;;;;3.30;1.35;;;12.80;99.90;;;;;;5031775;28;20517;-91
2023/08/09 04:29:02;;;;;;;;;;;12.90;99.90;;;;;;5031956;28;20025;-90
2023/08/09 04:31:28;;;;;;;3.88;1.58;;;13.00;99.90;;;;;;5031948;28;19995;-90
2023/08/09 04:33:54;;;;;;;4.15;1.00;;;13.10;99.90;;;;;;5034011;28;20508;-89
2023/08/09 04:36:20;;;;;;;;;;;13.20;99.90;;;;;;5035548;28;20025;-91
2023/08/09 04:38:46;;;;;;;7.63;1.08;;;13.40;99.90;;;;;;5035224;28;19912;-91
2023/08/09 04:41:12;;;;;;;5.10;1.20;;;13.50;99.90;;;;;;5035112;28;20032;-90
2023/08/09 04:43:42;;;;;;;9.65;1.23;;;13.70;99.90;;;;;;5036021;28;20033;-87
2023/08/09 04:46:10;;;;;;;3.38;1.15;;;13.80;99.90;;;;;;5035250;28;20036;-87
2023/08/09 04:48:37;;;;;;;3.80;1.27;;;14.00;99.90;;;;;;5044161;28;20029;-88
2023/08/09 04:51:03;;;;;;;5.18;1.23;;;14.10;99.90;;;;;;5052214;28;20027;-89
2023/08/09 04:53:29;;;;;;;;;;;14.20;99.90;;;;;;5054181;28;20107;-88
2023/08/09 04:55:55;;;;;;;10.57;2.35;;;14.40;99.90;;;;;;5055449;28;19908;-88
2023/08/09 04:58:21;;;;;;;7.15;1.95;;;14.40;99.90;;;;;;5055088;28;20559;-89
2023/08/09 05:00:46;;;;;;;5.68;2.25;;;14.50;99.90;;;;;;5056066;28;20051;-89
2023/08/09 05:03:12;;;;;;;;;;;14.70;99.90;;;;;;5055923;28;20056;-88
2023/08/09 05:05:37;;;;;;;4.13;1.95;;;14.80;99.90;;;;;;5055971;28;19963;-89
2023/08/09 05:08:03;;;;;;;4.93;1.60;;;14.90;99.90;;;;;;5054768;28;20063;-88
2023/08/09 05:10:29;;;;;;;8.35;1.50;;;15.00;99.90;;;;;;5055031;28;20021;-87
2023/08/09 05:12:55;;;;;;;7.20;1.88;;;15.30;99.90;;;;;;5056305;28;20083;-88
2023/08/09 05:15:20;;;;;;;3.30;1.17;;;15.50;99.90;;;;;;5056966;28;20035;-88
2023/08/09 05:17:46;;;;;;;;;;;15.70;99.90;;;;;;5055574;28;20025;-88
2023/08/09 05:20:12;;;;;;;2.88;1.33;;;15.90;99.90;;;;;;5054282;28;19979;-87
2023/08/09 05:22:38;;;;;;;11.90;6.32;;;16.30;99.90;;;;;;5055693;28;20067;-86
2023/08/09 05:25:04;;;;;;;56.50;31.77;;;16.50;99.90;;;;;;5055869;28;20036;-88
2023/08/09 05:27:30;;;;;;;112.57;65.22;;;16.70;99.90;;;;;;5055580;28;20017;-88
2023/08/09 05:29:55;;;;;;;136.20;85.78;;;17.00;99.90;;;;;;5054068;28;20032;-87
2023/08/09 05:32:21;;;;;;;155.82;97.28;;;17.20;99.90;;;;;;5035498;28;20063;-88
2023/08/09 05:34:47;;;;;;;167.40;103.53;;;17.30;99.90;;;;;;5035475;28;20025;-85
2023/08/09 05:37:13;;;;;;;153.10;97.97;;;17.50;99.90;;;;;;5035481;28;20508;-87
2023/08/09 05:39:39;;;;;;;176.88;114.47;;;17.70;99.90;;;;;;5034505;28;20474;-88
2023/08/09 05:42:04;;;;;;;187.50;125.13;;;18.10;99.90;;;;;;5035379;28;20018;-85
2023/08/09 05:44:30;;;;;;;201.25;132.27;;;18.30;99.90;;;;;;5034197;28;20053;-85
2023/08/09 05:46:56;;;;;;;211.75;135.98;;;18.30;99.90;;;;;;5034505;28;20029;-85
2023/08/09 05:49:22;;;;;;;226.98;136.88;;;18.30;99.90;;;;;;5034897;28;20029;-85
2023/08/09 05:51:48;;;;;;;234.02;141.90;;;18.40;99.90;;;;;;5033642;28;20025;-85
2023/08/09 05:54:13;;;;;;;239.52;138.90;;;18.50;99.90;;;;;;5034581;28;20087;-86
2023/08/09 05:56:39;;;;;;;215.57;119.85;;;18.70;99.90;;;;;;5033223;28;20459;-87
2023/08/09 05:59:05;;;;;;;199.63;108.05;;;19.00;99.90;;;;;;5034413;28;20520;-85
2023/08/09 06:01:31;;;;;;;122.50;63.72;;;19.30;99.90;;;;;;5035254;28;20018;-86
2023/08/09 06:03:57;;;;;;;88.88;47.90;;;19.70;99.90;;;;;;5033716;28;20030;-86
2023/08/09 06:06:23;;;;;;;53.58;29.55;;;20.10;99.90;;;;;;5033838;28;20025;-86
2023/08/09 06:08:49;;;;;;;44.08;22.67;;;20.70;95.80;;;;;;5034947;28;20025;-86
2023/08/09 06:11:15;;;;;;;23.85;13.23;;;21.20;93.10;;;;;;5034213;28;20026;-88
2023/08/09 06:13:41;;;;;;;16.42;7.72;;;22.00;90.00;;;;;;5033282;28;20048;-88
2023/08/09 06:16:06;;;;;;;5.25;2.28;;;22.70;81.20;;;;;;5033722;28;20042;-89
2023/08/09 06:18:32;;;;;;;8.30;2.03;;;23.00;70.10;;;;;;5033401;28;20138;-88
2023/08/09 06:20:58;;;;;;;3.13;1.13;;;23.40;66.80;;;;;;5037259;28;20413;-87
2023/08/09 06:23:24;;;;;;;3.20;1.15;;;23.70;65.00;;;;;;5053400;28;20021;-86
2023/08/09 06:25:50;;;;;;;3.70;1.02;;;24.30;63.40;;;;;;5054358;28;20036;-87
2023/08/09 06:28:17;;;;;;;3.70;0.85;;;25.10;57.70;;;;;;5053019;28;20025;-86
2023/08/09 06:30:43;;;;;;;2.20;0.88;;;26.20;55.60;;;;;;5053250;28;20090;-87
2023/08/09 06:33:09;;;;;;;2.85;1.42;;;26.90;52.90;;;;;;5051836;28;20029;-87
2023/08/09 06:35:34;;;;;;;7.50;2.60;;;27.70;50.90;;;;;;5052265;28;20709;-86
2023/08/09 06:38:00;;;;;;;4.82;1.80;;;27.90;53.40;;;;;;5032658;28;20037;-86
2023/08/09 06:40:26;;;;;;;4.53;2.13;;;28.10;52.40;;;;;;5033272;28;20033;-85
2023/08/09 06:42:51;;;;;;;3.67;1.50;;;28.40;51.50;;;;;;5033240;28;20018;-86
2023/08/09 06:45:17;;;;;;;3.45;1.67;;;28.70;50.60;;;;;;5033061;28;20483;-86
2023/08/09 06:47:43;;;;;;;4.45;1.30;;;28.70;47.60;;;;;;5035032;28;20067;-86
2023/08/09 06:50:09;;;;;;;4.28;2.17;;;28.80;46.30;;;;;;5036118;28;20037;-85
2023/08/09 06:52:36;;;;;;;3.78;1.80;;;29.10;48.00;;;;;;5031852;28;20191;-85
2023/08/09 06:55:07;;;;;;;2.15;0.90;;;29.40;48.50;;;;;;5032237;28;20029;-85
2023/08/09 06:57:33;;;;;;;5.85;1.38;;;29.40;46.20;;;;;;5032614;28;20033;-85
2023/08/09 06:59:59;;;;;;;12.60;1.60;;;29.20;45.80;;;;;;5032933;28;20033;-85
2023/08/09 07:02:26;;;;;;;2.78;1.30;;;29.20;45.60;;;;;;5042613;28;20025;-86
2023/08/09 07:04:53;;;;;;;3.33;1.45;;;29.30;46.70;;;;;;5051800;28;20033;-89
2023/08/09 07:07:19;;;;;;;3.33;0.77;;;29.40;44.80;;;;;;5054349;28;20029;-91
2023/08/09 07:09:45;;;;;;;2.13;0.98;;;29.30;44.50;;;;;;5051764;28;20563;-87
2023/08/09 07:12:11;;;;;;;2.20;0.90;;;29.10;44.10;;;;;;5050532;28;20116;-88
2023/08/09 07:14:36;;;;;;;3.53;1.10;;;29.40;44.00;;;;;;5054106;28;20037;-88
2023/08/09 07:17:02;;;;;;;8.80;0.90;;;29.70;43.50;;;;;;5036954;28;20032;-88
2023/08/09 07:19:28;;;;;;;1.60;0.88;;;29.60;42.90;;;;;;5033479;28;20034;-86
2023/08/09 07:21:54;;;;;;;2.88;0.65;;;29.90;42.40;;;;;;5037700;28;20025;-85
2023/08/09 07:24:20;;;;;;;2.95;1.02;;;30.10;41.80;;;;;;5044020;28;20131;-85
2023/08/09 07:26:45;;;;;;;3.10;0.85;;;30.10;42.10;;;;;;5047545;28;20025;-85
2023/08/09 07:29:11;;;;;;;5.93;1.23;;;30.10;43.60;;;;;;5044240;28;20100;-86
2023/08/09 07:31:37;;;;;;;2.00;1.08;;;30.20;43.10;;;;;;5035741;28;20036;-86
2023/08/09 07:34:02;;;;;;;2.97;1.20;;;30.20;42.20;;;;;;5031449;28;20038;-87
2023/08/09 07:36:28;;;;;;;5.30;0.90;;;30.00;42.90;;;;;;5041522;28;20028;-86
2023/08/09 07:38:54;;;;;;;3.50;1.00;;;30.20;42.60;;;;;;5034733;28;20048;-85
2023/08/09 07:41:19;;;;;;;3.50;1.25;;;30.60;41.70;;;;;;5031373;28;20032;-85
2023/08/09 07:43:45;;;;;;;6.85;1.10;;;30.70;41.00;;;;;;5032457;28;20053;-87
2023/08/09 07:46:11;;;;;;;3.60;0.88;;;30.80;41.10;;;;;;5033540;28;20465;-87
2023/08/09 07:48:37;;;;;;;2.67;0.90;;;30.80;41.10;;;;;;5031363;28;20036;-86
2023/08/09 07:51:03;;;;;;;2.15;0.95;;;31.00;40.60;;;;;;5032565;28;20025;-87
2023/08/09 07:53:28;;;;;;;3.63;0.70;;;31.20;40.70;;;;;;5045838;28;20155;-87
2023/08/09 07:55:54;;;;;;;1.35;0.60;;;31.50;39.70;;;;;;5032303;28;20034;-86
2023/08/09 07:58:20;;;;;;;1.52;0.60;;;31.30;40.60;;;;;;5034577;28;20020;-88
2023/08/09 08:00:46;;;;;;;5.57;0.70;;;31.10;40.10;;;;;;5037411;28;20044;-86
2023/08/09 08:03:13;;;;;;;3.28;0.85;;;30.60;39.10;;;;;;5032522;28;20055;-87
2023/08/09 08:05:39;;;;;;;3.72;0.95;;;30.30;40.40;;;;;;5042016;28;20025;-85
2023/08/09 08:08:04;;;;;;;2.85;1.02;;;30.50;40.90;;;;;;5048142;28;20576;-86
2023/08/09 08:10:31;;;;;;;2.35;0.60;;;30.90;38.90;;;;;;5049179;28;20116;-88
2023/08/09 08:12:57;;;;;;;1.85;0.65;;;30.80;38.00;;;;;;5031703;28;20056;-87
2023/08/09 08:15:23;;;;;;;2.55;0.70;;;30.30;39.10;;;;;;5046811;28;20049;-88
2023/08/09 08:17:51;;;;;;;4.53;1.10;;;30.00;40.60;;;;;;5052110;28;20030;-88
2023/08/09 08:20:21;;;;;;;1.33;0.85;;;30.10;41.00;;;;;;5038593;28;20036;-89
2023/08/09 08:22:49;;;;;;;3.55;0.98;;;30.20;40.30;;;;;;5047274;28;20010;-89
2023/08/09 08:25:16;;;;;;;1.30;0.70;;;30.10;39.60;;;;;;5054483;28;20026;-89
2023/08/09 08:27:43;;;;;;;2.05;0.60;;;29.60;40.10;;;;;;5033104;28;20024;-88
2023/08/09 08:30:11;;;;;;;1.73;0.80;;;29.00;41.30;;;;;;5033084;28;20478;-89
2023/08/09 08:32:36;;;;;;;4.70;0.77;;;28.70;42.80;;;;;;5033237;28;20024;-88
2023/08/09 08:35:03;;;;;;;5.30;1.00;;;28.50;43.70;;;;;;5032996;28;20124;-89
2023/08/09 08:37:29;;;;;;;3.60;0.80;;;28.50;44.50;;;;;;5032052;28;20132;-89
2023/08/09 08:39:55;;;;;;;2.83;0.80;;;28.70;44.20;;;;;;5033570;28;20033;-89
2023/08/09 08:42:21;;;;;;;1.17;0.60;;;28.90;42.60;;;;;;5049680;28;20029;-89
2023/08/09 08:44:47;;;;;;;2.10;0.80;;;29.40;42.10;;;;;;5051778;28;20090;-89
2023/08/09 08:47:12;;;;;;;2.05;0.50;;;29.90;40.50;;;;;;5053014;28;20505;-89
2023/08/09 08:49:48;;;;;;;2.75;0.63;;;30.30;39.60;;;;;;5052022;28;20048;-89
2023/08/09 08:52:16;;;;;;;3.75;1.05;;;30.40;40.80;;;;;;5051967;28;20138;-89
2023/08/09 08:54:42;;;;;;;1.95;0.60;;;30.50;40.10;;;;;;5039192;28;20044;-88
2023/08/09 08:57:08;;;;;;;1.98;0.68;;;30.60;40.20;;;;;;5031845;28;20029;-89
2023/08/09 08:59:34;;;;;;;1.27;0.70;;;31.00;39.50;;;;;;5032626;28;20021;-89
2023/08/09 09:02:02;;;;;;;1.63;0.70;;;31.40;39.20;;;;;;5031969;28;20021;-88
2023/08/09 09:04:28;;;;;;;1.45;0.70;;;31.50;38.00;;;;;;5033694;28;20045;-90
2023/08/09 09:06:54;;;;;;;1.13;0.60;;;31.40;38.10;;;;;;5038780;28;20033;-87
2023/08/09 09:09:20;;;;;;;1.65;0.80;;;31.30;39.20;;;;;;5033790;28;20043;-87
2023/08/09 09:11:49;;;;;;;1.88;0.75;;;31.00;39.90;;;;;;5049403;28;20028;-89
2023/08/09 09:14:17;;;;;;;3.13;0.70;;;30.80;39.70;;;;;;5050374;28;20041;-87
2023/08/09 09:16:43;;;;;;;2.13;0.90;;;30.60;39.80;;;;;;5035561;28;20037;-85
2023/08/09 09:19:10;;;;;;;1.17;0.65;;;30.90;39.40;;;;;;5051223;28;20091;-88
2023/08/09 09:21:36;;;;;;;2.00;0.57;;;30.40;39.80;;;;;;5045893;28;20436;-85
2023/08/09 09:24:07;;;;;;;0.93;0.60;;;29.80;41.80;;;;;;5055006;28;20496;-90
2023/08/09 09:26:34;;;;;;;2.00;0.70;;;29.60;41.90;;;;;;5052342;28;20076;-87
2023/08/09 09:29:00;;;;;;;2.03;0.52;;;29.30;41.80;;;;;;5038244;28;20021;-85
2023/08/09 09:31:39;;;;;;;1.30;0.60;;;29.00;43.10;;;;;;5037235;28;20029;-83
2023/08/09 09:34:09;;;;;;;1.02;0.57;;;28.70;44.20;;;;;;5044388;28;20025;-82
2023/08/09 09:36:39;;;;;;;1.85;0.73;;;28.60;43.60;;;;;;5053388;28;20635;-83
2023/08/09 09:39:09;;;;;;;3.85;0.60;;;28.50;44.80;;;;;;5052172;28;20246;-88
2023/08/09 09:41:37;;;;;;;4.78;0.70;;;28.50;44.20;;;;;;5037223;28;20061;-87
2023/08/09 09:44:03;;;;;;;1.20;0.47;;;28.90;43.20;;;;;;5033315;28;20027;-87
2023/08/09 09:46:28;;;;;;;1.88;0.70;;;29.20;42.20;;;;;;5053691;28;20028;-87
2023/08/09 09:49:01;;;;;;;1.80;0.60;;;29.20;41.70;;;;;;5053412;28;20025;-85
2023/08/09 09:51:28;;;;;;;2.22;0.95;;;29.30;41.80;;;;;;5034122;28;20132;-86
2023/08/09 09:53:54;;;;;;;5.97;0.73;;;29.50;41.80;;;;;;5034227;28;20030;-85
2023/08/09 09:56:19;;;;;;;1.67;0.55;;;29.40;41.70;;;;;;5046055;28;20082;-87
2023/08/09 09:58:47;;;;;;;2.33;0.73;;;29.20;41.40;;;;;;5049371;28;20120;-87
2023/08/09 10:01:19;;;;;;;3.00;0.63;;;28.90;42.50;;;;;;5038022;28;20013;-87
2023/08/09 10:03:45;;;;;;;1.83;0.60;;;28.70;43.00;;;;;;5034648;28;20026;-86
2023/08/09 10:06:25;;;;;;;1.35;0.55;;;28.50;42.70;;;;;;5051398;28;20072;-87
2023/08/09 10:08:56;;;;;;;6.45;0.50;;;28.40;43.40;;;;;;5038384;28;20065;-87
2023/08/09 10:11:24;;;;;;;0.80;0.50;;;28.20;43.40;;;;;;5042873;28;20083;-87
2023/08/09 10:13:52;;;;;;;1.10;0.50;;;28.00;44.60;;;;;;5049420;28;20046;-85
2023/08/09 10:16:22;;;;;;;1.95;0.60;;;27.90;45.60;;;;;;5042345;28;20076;-86
2023/08/09 10:18:56;;;;;;;5.20;0.50;;;27.40;45.70;;;;;;5051978;28;20025;-86
2023/08/09 10:21:22;;;;;;;1.40;0.60;;;27.20;45.50;;;;;;5052798;28;20028;-85
2023/08/09 10:23:56;;;;;;;1.02;0.47;;;26.90;46.00;;;;;;5052621;28;20032;-86
2023/08/09 10:26:30;;;;;;;5.20;0.55;;;26.80;46.80;;;;;;5052706;28;20039;-83
2023/08/09 10:29:08;;;;;;;1.95;0.65;;;27.00;48.10;;;;;;5053283;28;20027;-85
2023/08/09 10:31:59;;;;;;;1.58;0.50;;;27.10;46.30;;;;;;5049643;28;20453;-85
2023/08/09 10:34:41;;;;;;;1.77;0.50;;;27.00;48.30;;;;;;5033770;28;20037;-85
2023/08/09 10:37:09;;;;;;;7.35;0.50;;;26.70;48.60;;;;;;5033423;28;20109;-85
2023/08/09 10:39:36;;;;;;;1.70;0.70;;;26.50;48.60;;;;;;5034103;28;20375;-87
2023/08/09 10:42:05;;;;;;;1.00;0.50;;;26.40;50.00;;;;;;5033965;28;20072;-85
2023/08/09 10:44:42;;;;;;;1.50;0.70;;;26.50;49.50;;;;;;5034257;28;20037;-86
2023/08/09 10:47:19;;;;;;;1.38;0.68;;;26.50;49.50;;;;;;5032877;28;20516;-86
2023/08/09 10:49:48;;;;;;;1.85;0.60;;;26.60;49.10;;;;;;5032938;28;20030;-87
2023/08/09 10:52:28;;;;;;;1.33;0.60;;;26.50;48.90;;;;;;5034038;28;20029;-86
2023/08/09 10:55:19;;;;;;;1.45;0.63;;;26.50;48.90;;;;;;5041809;28;20416;-87
2023/08/09 10:57:50;;;;;;;1.42;0.50;;;26.60;48.30;;;;;;5050980;28;20033;-86
2023/08/09 11:00:18;;;;;;;3.20;0.85;;;26.50;47.90;;;;;;5052982;28;20095;-86
2023/08/09 11:02:52;;;;;;;2.72;0.77;;;26.40;49.50;;;;;;5038959;28;20021;-83
2023/08/09 11:05:18;;;;;;;2.00;0.82;;;26.40;50.60;;;;;;5033726;28;20074;-85
2023/08/09 11:07:56;;;;;;;1.45;0.63;;;26.40;49.60;;;;;;5048707;28;20080;-85
2023/08/09 11:10:34;;;;;;;1.42;0.50;;;26.50;49.00;;;;;;5033183;28;20437;-86
2023/08/09 11:13:05;;;;;;;1.20;0.55;;;26.70;48.20;;;;;;5046314;28;20049;-87
2023/08/09 11:15:32;;;;;;;1.65;0.60;;;26.70;47.20;;;;;;5043750;28;20562;-87
2023/08/09 11:17:57;;;;;;;1.00;0.60;;;26.60;48.40;;;;;;5052219;28;20017;-85
2023/08/09 11:20:23;;;;;;;3.72;1.40;;;26.50;47.70;;;;;;5046638;28;20481;-86
2023/08/09 11:22:56;;;;;;;11.38;0.88;;;26.50;48.50;;;;;;5032261;28;20021;-86
2023/08/09 11:25:23;;;;;;;5.03;0.50;;;26.30;49.50;;;;;;5034496;28;20033;-86
2023/08/09 11:27:56;;;;;;;2.88;0.50;;;26.20;50.10;;;;;;5045176;28;20035;-87
2023/08/09 11:30:23;;;;;;;2.17;0.60;;;26.20;50.60;;;;;;5053274;28;20025;-86
2023/08/09 11:32:57;;;;;;;1.27;0.57;;;26.20;49.60;;;;;;5056759;28;20051;-87
2023/08/09 11:35:45;;;;;;;2.10;0.80;;;26.30;49.80;;;;;;5055628;28;20029;-85
2023/08/09 11:38:16;;;;;;;1.15;0.52;;;26.10;49.20;;;;;;5051840;28;20105;-86
2023/08/09 11:40:48;;;;;;;2.13;0.60;;;26.10;49.10;;;;;;5052970;28;20036;-86
2023/08/09 11:43:16;;;;;;;2.60;0.57;;;26.30;49.60;;;;;;5051225;28;20116;-86
2023/08/09 11:45:56;;;;;;;0.85;0.47;;;26.40;48.80;;;;;;5051682;28;20033;-86
2023/08/09 11:48:33;;;;;;;2.35;0.68;;;26.20;48.50;;;;;;5051171;28;20036;-85
2023/08/09 11:51:13;;;;;;;2.60;0.57;;;26.20;49.20;;;;;;5051446;28;20021;-84
2023/08/09 11:53:40;;;;;;;2.60;0.93;;;26.10;50.20;;;;;;5051391;28;20039;-84
2023/08/09 11:56:16;;;;;;;2.28;0.60;;;26.00;50.80;;;;;;5052537;28;20025;-85
2023/08/09 11:58:46;;;;;;;0.93;0.40;;;26.00;50.50;;;;;;5051098;28;20075;-85
2023/08/09 12:01:21;;;;;;;1.67;0.40;;;25.90;50.50;;;;;;5051155;28;20028;-85
2023/08/09 12:03:52;;;;;;;2.67;0.50;;;25.80;50.60;;;;;;5051072;28;20029;-85
2023/08/09 12:06:32;;;;;;;1.42;0.50;;;25.60;51.30;;;;;;5050187;28;20347;-85
2023/08/09 12:08:58;;;;;;;3.13;0.50;;;25.50;52.10;;;;;;5051267;28;20115;-86
2023/08/09 12:11:23;;;;;;;3.38;0.52;;;25.50;52.20;;;;;;5051214;28;20056;-85
2023/08/09 12:13:49;;;;;;;1.55;0.40;;;25.50;52.10;;;;;;5052123;28;20571;-85
2023/08/09 12:16:15;;;;;;;2.80;0.68;;;25.50;52.30;;;;;;5050705;28;20021;-85
2023/08/09 12:18:40;;;;;;;2.38;0.40;;;25.40;53.20;;;;;;5052204;28;20071;-82
2023/08/09 12:21:08;;;;;;;1.30;0.60;;;25.40;53.10;;;;;;5052306;28;20021;-85
2023/08/09 12:23:37;;;;;;;5.88;0.52;;;25.40;53.90;;;;;;5051254;28;20485;-85
2023/08/09 12:26:03;;;;;;;0.90;0.40;;;25.30;52.90;;;;;;5052251;28;20048;-84
2023/08/09 12:28:30;;;;;;;5.28;0.50;;;25.30;52.90;;;;;;5052388;28;20439;-85
2023/08/09 12:30:56;;;;;;;2.03;0.50;;;25.30;52.60;;;;;;5052299;28;20017;-86
2023/08/09 12:33:22;;;;;;;1.15;0.50;;;25.20;51.30;;;;;;5051273;28;20032;-85
2023/08/09 12:35:47;;;;;;;1.98;0.50;;;25.10;50.30;;;;;;5050817;28;20547;-85
2023/08/09 12:38:13;;;;;;;0.57;0.35;;;25.20;50.50;;;;;;5051980;28;20029;-85
2023/08/09 12:40:39;;;;;;;1.08;0.50;;;25.30;51.60;;;;;;5051001;28;20025;-85
2023/08/09 12:43:04;;;;;;;1.15;0.38;;;25.40;52.40;;;;;;5050681;28;20027;-85
2023/08/09 12:45:30;;;;;;;0.85;0.50;;;25.40;52.70;;;;;;5050914;28;20021;-85
2023/08/09 12:47:56;;;;;;;1.80;0.82;;;25.40;51.90;;;;;;5050810;28;20512;-85
2023/08/09 12:50:22;;;;;;;4.30;0.40;;;25.40;52.10;;;;;;5051828;28;20036;-86
2023/08/09 12:52:48;;;;;;;4.05;0.50;;;25.50;51.70;;;;;;5049979;28;20378;-84
2023/08/09 12:55:14;;;;;;;1.15;0.40;;;25.40;51.20;;;;;;5053994;28;20051;-85
2023/08/09 12:57:40;;;;;;;1.17;0.47;;;25.40;50.80;;;;;;5055969;28;20059;-85